Brendan Turecamo — WDB9024 — position and weather

sailwx.info

Track history (hours):
 
Tides and Currents Weather Stations Pressure Air Temp Water Temp Dewpoint Dewpoint Depression Visibility Wind Speed Wind Dir Waves Ship Positions

Brendan Turecamo

Owner: Moran Towing Corporation, New Canaan, CT. More information available from US FCC via Universal Licensing System and Coast Guard Vessel Documentation Center.

Last reported at 2017-Dec-18 02:59 UTC. Time now 2017-Dec-18 03:28 UTC.
Position N 40°38' W 074°08'.

Length 33 m; draft 4.5 m.

Type: Tug. MMSI: 366946760.

Date/timePositionNaut miles runAvg speedWind from/ knotsBaromVisibWave heightAir tempDewpointWater temp
2017-Dec-18 02:59N 40°38' W 074°08'0 0.0
2017-Dec-18 02:27N 40°38' W 074°08'0 0.0
2017-Dec-18 01:53N 40°38' W 074°08'0 0.0
2017-Dec-18 00:48N 40°38' W 074°08'0 0.0
2017-Dec-18 00:27N 40°38' W 074°08'0 0.0
2017-Dec-17 22:51N 40°38' W 074°08'2 6.0
2017-Dec-17 22:30N 40°39' W 074°05'2 4.5
2017-Dec-17 22:00N 40°37' W 074°03'2 3.5
2017-Dec-17 21:30N 40°39' W 074°04'3 5.3
2017-Dec-17 21:00N 40°38' W 074°08'0 0.0
2017-Dec-17 20:29N 40°38' W 074°08'0 0.0
2017-Dec-17 20:00N 40°38' W 074°08'0 0.0
2017-Dec-17 19:30N 40°38' W 074°08'0 0.0
2017-Dec-17 18:59N 40°38' W 074°08'0 0.0
2017-Dec-17 18:30N 40°38' W 074°08'0 0.0
2017-Dec-17 17:59N 40°38' W 074°08'0 0.0
2017-Dec-17 17:29N 40°38' W 074°08'0 0.0
2017-Dec-17 16:59N 40°38' W 074°08'0 0.0
2017-Dec-17 16:29N 40°38' W 074°08'0 0.3
2017-Dec-17 16:00N 40°39' W 074°08'1 1.8
2017-Dec-17 15:31N 40°39' W 074°07'0 0.0
2017-Dec-17 15:00N 40°39' W 074°07'0 0.0
2017-Dec-17 14:30N 40°39' W 074°07'0 0.0
2017-Dec-17 13:59N 40°39' W 074°07'0 0.0
2017-Dec-17 13:30N 40°39' W 074°07'1 1.9
2017-Dec-17 12:58N 40°38' W 074°08'0 0.0
2017-Dec-17 11:30N 40°38' W 074°08'0 0.0
2017-Dec-17 10:59N 40°38' W 074°08'0 0.0
2017-Dec-17 10:30N 40°38' W 074°08'0 0.0
2017-Dec-17 09:59N 40°38' W 074°08'0 0.0
2017-Dec-17 08:59N 40°38' W 074°08'0 0.0
2017-Dec-17 08:30N 40°38' W 074°08'0 0.0
2017-Dec-17 07:58N 40°38' W 074°08'0 0.0
2017-Dec-17 07:29N 40°38' W 074°08'0 0.0
2017-Dec-17 07:01N 40°38' W 074°08'0 0.0
2017-Dec-17 06:26N 40°38' W 074°08'2 5.0
2017-Dec-17 06:00N 40°39' W 074°05'0 0.5
2017-Dec-17 05:30N 40°39' W 074°05'1 2.6
2017-Dec-17 05:00N 40°39' W 074°07'1 0.3
2017-Dec-17 02:03N 40°38' W 074°08'0 0.0
2017-Dec-17 01:51N 40°38' W 074°08'0 0.0
2017-Dec-17 01:29N 40°38' W 074°08'0 0.0
2017-Dec-17 00:33N 40°38' W 074°08'0 2.9
2017-Dec-17 00:30N 40°39' W 074°08'0 0.2
2017-Dec-17 00:00N 40°38' W 074°08'1 2.1
2017-Dec-16 23:31N 40°39' W 074°09'2 3.9
2017-Dec-16 23:00N 40°41' W 074°09'2 4.4
2017-Dec-16 22:30N 40°39' W 074°08'0 0.6
2017-Dec-16 21:50N 40°38' W 074°08'0 0.0
2017-Dec-16 21:24N 40°38' W 074°08'0 0.0
2017-Dec-16 21:00N 40°38' W 074°08'0 1.0
2017-Dec-16 20:30N 40°39' W 074°08'0 1.0
2017-Dec-16 20:00N 40°38' W 074°08'0 0.0
2017-Dec-16 19:30N 40°38' W 074°08'2 3.8
2017-Dec-16 19:00N 40°39' W 074°05'2 4.5
2017-Dec-16 18:31N 40°39' W 074°03'0 0.1
2017-Dec-16 18:01N 40°39' W 074°02'0 0.0
2017-Dec-16 17:30N 40°39' W 074°02'0 0.0
2017-Dec-16 17:01N 40°39' W 074°02'0 0.1
2017-Dec-16 16:31N 40°39' W 074°02'0 0.0
2017-Dec-16 16:01N 40°39' W 074°02'0 0.0
2017-Dec-16 15:31N 40°39' W 074°02'0 0.0
2017-Dec-16 15:01N 40°39' W 074°02'0 0.0
2017-Dec-16 14:30N 40°39' W 074°02'0 0.0
2017-Dec-16 14:01N 40°39' W 074°02'0 0.0
2017-Dec-16 13:31N 40°39' W 074°02'0 0.0
2017-Dec-16 13:00N 40°39' W 074°02'0 0.0
2017-Dec-16 12:30N 40°39' W 074°02'2 4.7
2017-Dec-16 12:00N 40°39' W 074°06'0 0.0
2017-Dec-16 11:30N 40°39' W 074°06'1 2.2
2017-Dec-16 11:00N 40°39' W 074°04'1 2.4
2017-Dec-16 10:31N 40°40' W 074°03'0 0.0
2017-Dec-16 10:01N 40°40' W 074°03'0 0.0
2017-Dec-16 09:30N 40°40' W 074°03'0 0.0
2017-Dec-16 09:00N 40°39' W 074°03'0 0.0
2017-Dec-16 08:31N 40°39' W 074°03'0 0.0
2017-Dec-16 08:00N 40°39' W 074°03'0 0.0
2017-Dec-16 07:30N 40°39' W 074°03'0 0.7
2017-Dec-16 07:01N 40°39' W 074°03'1 1.8
2017-Dec-16 06:31N 40°40' W 074°04'0 0.0
2017-Dec-16 06:01N 40°40' W 074°04'0 0.0
2017-Dec-16 05:31N 40°40' W 074°04'0 0.0
2017-Dec-16 05:00N 40°40' W 074°04'0 0.0
2017-Dec-16 04:31N 40°40' W 074°04'0 0.0
2017-Dec-16 04:00N 40°40' W 074°04'0 0.0
2017-Dec-16 03:30N 40°40' W 074°04'0 0.0
2017-Dec-16 03:01N 40°40' W 074°04'0 0.0
2017-Dec-16 02:31N 40°40' W 074°04'0 0.0
2017-Dec-16 02:01N 40°40' W 074°04'0 0.0
2017-Dec-16 01:31N 40°40' W 074°04'1 2.4
2017-Dec-16 01:00N 40°39' W 074°05'4 8.2
2017-Dec-16 00:30N 40°41' W 074°01'0 0.5
2017-Dec-16 00:01N 40°41' W 074°01'5 9.0
2017-Dec-15 23:30N 40°39' W 074°06'2 4.2
2017-Dec-15 22:58N 40°40' W 074°08'2 1.9
2017-Dec-15 22:07N 40°42' W 074°07'1 6.9
2017-Dec-15 22:00N 40°43' W 074°07'0 0.2
2017-Dec-15 21:30N 40°43' W 074°07'2 4.1
2017-Dec-15 20:59N 40°41' W 074°08'2 1.3
2017-Dec-15 19:10N 40°38' W 074°08'0 0.0
2017-Dec-15 18:44N 40°38' W 074°08'0 0.0
2017-Dec-15 18:21N 40°38' W 074°08'0 0.0
2017-Dec-15 17:57N 40°38' W 074°08'0 0.0
2017-Dec-15 17:28N 40°38' W 074°08'0 0.0
2017-Dec-15 16:55N 40°38' W 074°08'0 0.0
2017-Dec-15 16:28N 40°38' W 074°08'0 0.2
2017-Dec-15 16:00N 40°39' W 074°08'1 2.6
2017-Dec-15 15:29N 40°39' W 074°06'0 0.0
2017-Dec-15 15:00N 40°39' W 074°06'0 0.2
2017-Dec-15 14:31N 40°39' W 074°06'0 0.9
2017-Dec-15 14:01N 40°39' W 074°07'1 0.5
2017-Dec-15 12:12N 40°39' W 074°08'2 7.9
2017-Dec-15 12:00N 40°40' W 074°08'1 2.2
2017-Dec-15 11:30N 40°41' W 074°09'0 0.0
2017-Dec-15 11:00N 40°41' W 074°09'2 3.3
2017-Dec-15 10:30N 40°39' W 074°09'3 5.4
2017-Dec-15 10:00N 40°39' W 074°05'2 4.6
2017-Dec-15 09:30N 40°38' W 074°03'3 6.5
2017-Dec-15 09:00N 40°39' W 074°07'1 0.3
2017-Dec-15 06:18N 40°38' W 074°08'0 0.0
2017-Dec-15 05:43N 40°38' W 074°08'0 0.0
2017-Dec-15 05:29N 40°38' W 074°08'0 0.0
2017-Dec-15 05:00N 40°38' W 074°08'0 0.0
2017-Dec-15 03:56N 40°38' W 074°08'3 1.8
2017-Dec-15 02:29N 40°41' W 074°08'3 0.3
2017-Dec-14 18:31N 40°39' W 074°08'2 4.7
2017-Dec-14 18:00N 40°39' W 074°05'4 8.5
2017-Dec-14 17:30N 40°35' W 074°02'0 0.7
2017-Dec-14 17:00N 40°35' W 074°01'0 0.0
2017-Dec-14 16:30N 40°35' W 074°01'0 0.0
2017-Dec-14 16:00N 40°35' W 074°01'0 0.0
2017-Dec-14 14:59N 40°35' W 074°01'0 0.0
2017-Dec-14 14:30N 40°35' W 074°01'0 0.0
2017-Dec-14 14:00N 40°35' W 074°01'1 2.7
2017-Dec-14 13:30N 40°36' W 074°02'5 9.2
2017-Dec-14 13:00N 40°39' W 074°08'0 0.1
2017-Dec-14 12:30N 40°38' W 074°08'0 0.0
2017-Dec-14 12:00N 40°38' W 074°08'0 0.0
2017-Dec-14 11:30N 40°38' W 074°08'2 3.9
2017-Dec-14 11:00N 40°40' W 074°08'2 3.6
2017-Dec-14 10:29N 40°39' W 074°09'3 5.5
2017-Dec-14 10:01N 40°39' W 074°05'2 4.5
2017-Dec-14 09:30N 40°38' W 074°03'2 4.5
2017-Dec-14 09:01N 40°39' W 074°06'2 3.5
2017-Dec-14 08:31N 40°38' W 074°08'0 0.0
2017-Dec-14 08:00N 40°38' W 074°08'0 0.0
2017-Dec-14 07:30N 40°38' W 074°08'0 0.0
2017-Dec-14 07:00N 40°38' W 074°08'3 5.3
2017-Dec-14 06:31N 40°39' W 074°11'5 9.7
2017-Dec-14 06:01N 40°34' W 074°13'2 0.7
2017-Dec-14 02:57N 40°36' W 074°12'3 6.7
2017-Dec-14 02:30N 40°39' W 074°10'2 3.9
2017-Dec-14 02:00N 40°38' W 074°08'0 0.0
2017-Dec-14 01:29N 40°38' W 074°08'0 0.0
2017-Dec-14 01:00N 40°38' W 074°08'0 0.0
2017-Dec-14 00:30N 40°38' W 074°08'0 0.0
2017-Dec-14 00:00N 40°38' W 074°08'0 0.0
2017-Dec-13 23:22N 40°38' W 074°08'0 0.0
2017-Dec-13 22:56N 40°38' W 074°08'0 0.0
2017-Dec-13 22:30N 40°38' W 074°08'0 0.0
2017-Dec-13 22:00N 40°38' W 074°08'0 0.0
2017-Dec-13 21:28N 40°38' W 074°08'0 0.0
2017-Dec-13 21:00N 40°38' W 074°08'0 0.0
2017-Dec-13 20:30N 40°38' W 074°08'0 0.0
2017-Dec-13 20:00N 40°38' W 074°08'0 0.0
2017-Dec-13 19:30N 40°38' W 074°08'0 0.0
2017-Dec-13 18:59N 40°38' W 074°08'0 0.0
2017-Dec-13 18:30N 40°38' W 074°08'0 0.0
2017-Dec-13 17:56N 40°38' W 074°08'0 0.0
2017-Dec-13 17:27N 40°38' W 074°08'0 0.9
2017-Dec-13 16:59N 40°39' W 074°07'0 0.9
2017-Dec-13 16:30N 40°39' W 074°07'0 0.0
2017-Dec-13 15:59N 40°39' W 074°07'1 2.8
2017-Dec-13 15:30N 40°39' W 074°05'2 4.8
2017-Dec-13 15:00N 40°37' W 074°03'0 0.1
2017-Dec-13 14:30N 40°37' W 074°03'3 6.3
2017-Dec-13 14:00N 40°39' W 074°07'1 1.8
2017-Dec-13 13:29N 40°38' W 074°08'0 0.0
2017-Dec-13 12:52N 40°38' W 074°08'0 0.0
2017-Dec-13 12:28N 40°38' W 074°08'1 2.7
2017-Dec-13 12:00N 40°39' W 074°09'5 8.6
2017-Dec-13 11:28N 40°35' W 074°13'2 0.5
2017-Dec-13 08:01N 40°36' W 074°12'0 9.8
2017-Dec-13 07:59N 40°37' W 074°12'3 7.4
2017-Dec-13 07:31N 40°39' W 074°08'0 0.3
2017-Dec-13 06:12N 40°38' W 074°08'0 0.0
2017-Dec-13 05:51N 40°38' W 074°08'0 0.0
2017-Dec-13 05:20N 40°38' W 074°08'0 0.0
2017-Dec-13 02:10N 40°38' W 074°08'0 0.0
2017-Dec-13 01:54N 40°38' W 074°08'0 0.0
2017-Dec-13 01:28N 40°38' W 074°08'0 0.0
2017-Dec-13 00:59N 40°38' W 074°08'0 0.0
2017-Dec-13 00:30N 40°38' W 074°08'0 0.0
2017-Dec-12 23:15N 40°38' W 074°08'0 0.0
2017-Dec-12 20:44N 40°38' W 074°08'0 0.0
2017-Dec-12 20:18N 40°38' W 074°08'2 7.4
2017-Dec-12 20:00N 40°39' W 074°05'0 0.3
2017-Dec-12 19:30N 40°39' W 074°05'1 1.9
2017-Dec-12 19:00N 40°40' W 074°04'0 0.0
2017-Dec-12 18:30N 40°40' W 074°04'0 0.0
2017-Dec-12 18:01N 40°40' W 074°04'0 0.3
2017-Dec-12 17:31N 40°40' W 074°04'0 0.0
2017-Dec-12 17:00N 40°40' W 074°04'0 0.0
2017-Dec-12 16:30N 40°40' W 074°04'0 0.0
2017-Dec-12 16:01N 40°40' W 074°04'0 0.0
2017-Dec-12 15:31N 40°40' W 074°04'0 0.0
2017-Dec-12 15:01N 40°40' W 074°04'0 0.0
2017-Dec-12 14:31N 40°40' W 074°04'0 0.0
2017-Dec-12 14:01N 40°40' W 074°04'0 0.0
2017-Dec-12 13:31N 40°40' W 074°04'0 0.0
2017-Dec-12 13:00N 40°40' W 074°04'0 0.0
2017-Dec-12 12:30N 40°40' W 074°04'0 0.0
2017-Dec-12 12:01N 40°40' W 074°04'0 0.0
2017-Dec-12 11:30N 40°40' W 074°04'0 0.0
2017-Dec-12 11:01N 40°40' W 074°04'0 0.0
2017-Dec-12 10:31N 40°40' W 074°04'0 0.0
2017-Dec-12 10:01N 40°40' W 074°04'0 0.0
2017-Dec-12 09:31N 40°40' W 074°04'0 0.0
2017-Dec-12 09:00N 40°40' W 074°04'0 0.0
2017-Dec-12 08:31N 40°40' W 074°04'0 0.0
2017-Dec-12 08:01N 40°40' W 074°04'0 0.0
2017-Dec-12 07:30N 40°40' W 074°04'0 0.0
2017-Dec-12 07:00N 40°40' W 074°04'0 0.0
2017-Dec-12 06:31N 40°40' W 074°04'0 0.0
2017-Dec-12 06:01N 40°40' W 074°04'0 0.0
2017-Dec-12 05:31N 40°40' W 074°04'0 0.0
2017-Dec-12 05:01N 40°40' W 074°04'0 0.0
2017-Dec-12 04:30N 40°40' W 074°04'0 0.0
2017-Dec-12 04:01N 40°40' W 074°04'0 0.0
2017-Dec-12 03:31N 40°40' W 074°04'0 0.0
2017-Dec-12 03:01N 40°40' W 074°04'0 0.0
2017-Dec-12 02:31N 40°40' W 074°04'0 0.0
2017-Dec-12 02:00N 40°40' W 074°04'0 0.0
2017-Dec-12 01:30N 40°40' W 074°04'0 0.0
2017-Dec-12 01:01N 40°40' W 074°04'0 0.0
2017-Dec-12 00:30N 40°40' W 074°04'0 0.0
2017-Dec-12 00:00N 40°40' W 074°04'0 0.0
2017-Dec-11 23:31N 40°40' W 074°04'0 0.0
2017-Dec-11 23:01N 40°40' W 074°04'0 0.0
2017-Dec-11 22:31N 40°40' W 074°04'0 0.0
2017-Dec-11 22:01N 40°40' W 074°04'0 0.0
2017-Dec-11 21:31N 40°40' W 074°04'0 0.0
2017-Dec-11 21:01N 40°40' W 074°04'0 0.0
2017-Dec-11 20:31N 40°40' W 074°04'1 2.1
2017-Dec-11 20:00N 40°39' W 074°05'0 0.7
2017-Dec-11 19:30N 40°39' W 074°05'1 2.8
2017-Dec-11 19:00N 40°38' W 074°03'4 7.4
2017-Dec-11 18:30N 40°39' W 074°08'3 5.6
2017-Dec-11 17:55N 40°42' W 074°09'1 3.3
2017-Dec-11 17:30N 40°41' W 074°08'3 4.8
2017-Dec-11 16:59N 40°39' W 074°06'4 9.4
2017-Dec-11 16:30N 40°41' W 074°01'0 0.1
2017-Dec-11 16:01N 40°41' W 074°01'3 6.8
2017-Dec-11 15:30N 40°39' W 074°04'3 5.3
2017-Dec-11 15:00N 40°38' W 074°08'0 0.0
2017-Dec-11 14:30N 40°38' W 074°08'0 0.0
2017-Dec-11 14:01N 40°38' W 074°08'0 0.0
2017-Dec-11 13:29N 40°38' W 074°08'0 0.0
2017-Dec-11 12:58N 40°38' W 074°08'0 0.0
2017-Dec-11 12:30N 40°38' W 074°08'0 0.0
2017-Dec-11 12:00N 40°38' W 074°08'0 0.0
2017-Dec-11 11:30N 40°38' W 074°08'0 0.0
2017-Dec-11 11:00N 40°38' W 074°08'0 0.0
2017-Dec-11 10:30N 40°38' W 074°08'0 0.0
2017-Dec-11 10:01N 40°38' W 074°08'0 0.0
2017-Dec-11 09:24N 40°38' W 074°08'0 0.0
2017-Dec-11 08:59N 40°38' W 074°08'0 0.0
2017-Dec-11 08:27N 40°38' W 074°08'0 0.0
2017-Dec-11 08:00N 40°38' W 074°08'0 0.0
2017-Dec-11 07:31N 40°38' W 074°08'0 0.0
2017-Dec-11 07:00N 40°38' W 074°08'0 0.0
2017-Dec-11 06:30N 40°38' W 074°08'0 0.0
2017-Dec-11 06:00N 40°38' W 074°08'0 0.0
2017-Dec-11 05:31N 40°38' W 074°08'0 0.0
2017-Dec-11 04:59N 40°38' W 074°08'0 0.0
2017-Dec-11 04:30N 40°38' W 074°08'0 0.0
2017-Dec-11 04:00N 40°38' W 074°08'0 0.0
2017-Dec-11 03:30N 40°38' W 074°08'0 0.0
2017-Dec-11 03:00N 40°38' W 074°08'0 0.0
2017-Dec-11 02:30N 40°38' W 074°08'0 0.0
2017-Dec-11 02:00N 40°38' W 074°08'0 0.0
2017-Dec-11 01:30N 40°38' W 074°08'0 0.0
2017-Dec-11 00:59N 40°38' W 074°08'0 0.0
2017-Dec-11 00:29N 40°38' W 074°08'0 0.0
2017-Dec-11 00:00N 40°38' W 074°08'0 0.0
2017-Dec-10 23:29N 40°38' W 074°08'0 0.0
2017-Dec-10 23:00N 40°38' W 074°08'0 0.0
2017-Dec-10 22:30N 40°38' W 074°08'1 1.3
2017-Dec-10 22:01N 40°39' W 074°09'4 7.7
2017-Dec-10 21:30N 40°36' W 074°12'1 0.5
2017-Dec-10 20:16N 40°35' W 074°12'1 4.0
2017-Dec-10 19:56N 40°34' W 074°13'3 1.2
2017-Dec-10 17:45N 40°36' W 074°12'2 6.8
2017-Dec-10 17:31N 40°38' W 074°12'0 0.1
2017-Dec-10 17:00N 40°38' W 074°12'4 7.0
2017-Dec-10 16:30N 40°39' W 074°08'0 0.2
2017-Dec-10 15:59N 40°38' W 074°08'0 0.0
2017-Dec-10 15:28N 40°38' W 074°08'0 0.0
2017-Dec-10 15:00N 40°38' W 074°08'0 0.0
2017-Dec-10 14:30N 40°38' W 074°08'0 0.0
2017-Dec-10 14:00N 40°38' W 074°08'0 0.0
2017-Dec-10 13:27N 40°38' W 074°08'0 0.0
2017-Dec-10 13:00N 40°38' W 074°08'0 0.0
2017-Dec-10 12:27N 40°38' W 074°08'0 0.0
2017-Dec-10 12:01N 40°38' W 074°08'0 0.0
2017-Dec-10 11:30N 40°38' W 074°08'0 0.0
2017-Dec-10 10:37N 40°38' W 074°08'0 0.0
2017-Dec-10 09:38N 40°38' W 074°08'0 0.0
2017-Dec-10 09:30N 40°38' W 074°08'0 0.0
2017-Dec-10 08:59N 40°38' W 074°08'0 0.0
2017-Dec-10 08:25N 40°38' W 074°08'0 0.0
2017-Dec-10 07:56N 40°38' W 074°08'0 0.4
2017-Dec-10 07:30N 40°39' W 074°08'2 3.4
2017-Dec-10 07:01N 40°40' W 074°08'1 2.2
2017-Dec-10 06:30N 40°41' W 074°09'0 0.0
2017-Dec-10 06:00N 40°41' W 074°09'0 0.1
2017-Dec-10 05:30N 40°41' W 074°09'0 0.0
2017-Dec-10 05:00N 40°41' W 074°09'0 1.0
2017-Dec-10 04:30N 40°41' W 074°09'2 4.7
2017-Dec-10 03:59N 40°38' W 074°08'0 0.0
2017-Dec-10 03:30N 40°38' W 074°08'0 0.0
2017-Dec-10 03:00N 40°38' W 074°08'0 0.0
2017-Dec-10 02:31N 40°38' W 074°08'0 0.0
2017-Dec-10 02:00N 40°38' W 074°08'1 1.3
2017-Dec-10 01:29N 40°39' W 074°07'0 0.4
2017-Dec-10 01:00N 40°39' W 074°07'1 2.6
2017-Dec-10 00:31N 40°39' W 074°05'0 0.4
2017-Dec-10 00:01N 40°39' W 074°05'0 0.8
2017-Dec-09 23:30N 40°39' W 074°05'1 1.7
2017-Dec-09 23:00N 40°40' W 074°04'0 0.0
2017-Dec-09 22:30N 40°40' W 074°04'0 0.0
2017-Dec-09 22:00N 40°40' W 074°04'0 0.0
2017-Dec-09 21:31N 40°40' W 074°04'0 0.0
2017-Dec-09 21:00N 40°40' W 074°04'0 0.0
2017-Dec-09 20:30N 40°40' W 074°04'0 0.0
2017-Dec-09 20:01N 40°40' W 074°04'0 0.0
2017-Dec-09 19:31N 40°40' W 074°04'0 0.0
2017-Dec-09 19:00N 40°40' W 074°04'0 0.0
2017-Dec-09 18:30N 40°40' W 074°04'0 0.0
2017-Dec-09 18:00N 40°40' W 074°04'0 0.0
2017-Dec-09 17:30N 40°40' W 074°04'1 2.0
2017-Dec-09 17:00N 40°40' W 074°03'1 1.2
2017-Dec-09 16:31N 40°40' W 074°03'0 0.1
2017-Dec-09 16:01N 40°40' W 074°03'0 0.3
2017-Dec-09 15:30N 40°40' W 074°03'0 0.1
2017-Dec-09 15:00N 40°40' W 074°03'0 0.1
2017-Dec-09 14:31N 40°40' W 074°03'0 0.1
2017-Dec-09 14:01N 40°40' W 074°03'0 0.0
2017-Dec-09 13:30N 40°40' W 074°03'0 0.0
2017-Dec-09 13:00N 40°40' W 074°03'0 0.0
2017-Dec-09 12:31N 40°40' W 074°03'0 0.0
2017-Dec-09 12:01N 40°40' W 074°03'3 5.3
2017-Dec-09 11:31N 40°39' W 074°06'1 2.9
2017-Dec-09 11:01N 40°38' W 074°08'0 0.0
2017-Dec-09 10:30N 40°38' W 074°08'0 0.0
2017-Dec-09 10:01N 40°38' W 074°08'2 3.4
2017-Dec-09 09:30N 40°39' W 074°10'4 8.6
2017-Dec-09 09:00N 40°35' W 074°13'1 0.7
2017-Dec-09 07:11N 40°36' W 074°12'2 9.4
2017-Dec-09 06:59N 40°38' W 074°12'3 6.4
2017-Dec-09 06:29N 40°38' W 074°08'0 0.0
2017-Dec-09 06:00N 40°38' W 074°08'0 0.0
2017-Dec-09 05:30N 40°38' W 074°08'0 0.0
2017-Dec-09 04:57N 40°38' W 074°08'0 0.0
2017-Dec-09 04:25N 40°38' W 074°08'0 0.0
2017-Dec-09 03:56N 40°38' W 074°08'0 0.0
2017-Dec-09 03:29N 40°38' W 074°08'0 0.0
2017-Dec-09 02:46N 40°38' W 074°08'0 0.0
2017-Dec-09 01:21N 40°38' W 074°08'0 0.0
2017-Dec-09 01:01N 40°38' W 074°08'3 5.4
2017-Dec-09 00:30N 40°39' W 074°04'3 6.9
2017-Dec-09 00:01N 40°41' W 074°01'2 3.6
2017-Dec-08 23:31N 40°40' W 074°02'4 8.3
2017-Dec-08 23:00N 40°39' W 074°08'3 5.1
2017-Dec-08 22:30N 40°41' W 074°08'1 2.0
2017-Dec-08 21:58N 40°42' W 074°09'3 7.0
2017-Dec-08 21:30N 40°39' W 074°08'1 1.0
2017-Dec-08 20:59N 40°38' W 074°08'0 0.0
2017-Dec-08 20:26N 40°38' W 074°08'0 0.0
2017-Dec-08 19:58N 40°38' W 074°08'0 0.0
2017-Dec-08 19:30N 40°38' W 074°08'0 0.0
2017-Dec-08 18:59N 40°38' W 074°08'0 0.0
2017-Dec-08 18:31N 40°38' W 074°08'0 0.0
2017-Dec-08 17:58N 40°38' W 074°08'0 0.0
2017-Dec-08 17:27N 40°38' W 074°08'0 0.0
2017-Dec-08 16:53N 40°38' W 074°08'0 0.0
2017-Dec-08 16:30N 40°38' W 074°08'0 0.0
2017-Dec-08 16:00N 40°38' W 074°08'0 0.0
2017-Dec-08 15:30N 40°38' W 074°08'0 0.0
2017-Dec-08 14:53N 40°38' W 074°08'0 0.0
2017-Dec-08 14:30N 40°38' W 074°08'0 0.0
2017-Dec-08 14:00N 40°38' W 074°08'0 0.0
2017-Dec-08 13:30N 40°38' W 074°08'0 0.0
2017-Dec-08 13:00N 40°38' W 074°08'0 0.0
2017-Dec-08 12:29N 40°38' W 074°08'0 0.0
2017-Dec-08 12:00N 40°38' W 074°08'0 0.0
2017-Dec-08 11:31N 40°38' W 074°08'0 0.0
2017-Dec-08 10:59N 40°38' W 074°08'0 0.0
2017-Dec-08 10:29N 40°38' W 074°08'0 0.0
2017-Dec-08 10:00N 40°38' W 074°08'0 0.0
2017-Dec-08 09:31N 40°38' W 074°08'0 0.0
2017-Dec-08 09:00N 40°38' W 074°08'0 0.0
2017-Dec-08 08:30N 40°38' W 074°08'4 7.3
2017-Dec-08 08:00N 40°37' W 074°12'2 3.7
2017-Dec-08 07:30N 40°35' W 074°13'0 0.1
2017-Dec-08 06:58N 40°35' W 074°13'0 0.0
2017-Dec-08 06:22N 40°35' W 074°13'  
Track history (hours):
 
Tides and Currents Weather Stations Pressure Air Temp Water Temp Dewpoint Dewpoint Depression Visibility Wind Speed Wind Dir Waves Ship Positions

Brendan Turecamo

Owner: Moran Towing Corporation, New Canaan, CT. More information available from US FCC via Universal Licensing System and Coast Guard Vessel Documentation Center.

Last reported at 2017-Dec-18 02:59 UTC. Time now 2017-Dec-18 03:28 UTC.
Position N 40°38' W 074°08'.

Length 33 m; draft 4.5 m.

Type: Tug. MMSI: 366946760.

Date/timePositionNaut miles runAvg speedWind from/ knotsBaromVisibWave heightAir tempDewpointWater temp
2017-Dec-18 02:59N 40°38' W 074°08'0 0.0
2017-Dec-18 02:27N 40°38' W 074°08'0 0.0
2017-Dec-18 01:53N 40°38' W 074°08'0 0.0
2017-Dec-18 00:48N 40°38' W 074°08'0 0.0
2017-Dec-18 00:27N 40°38' W 074°08'0 0.0
2017-Dec-17 22:51N 40°38' W 074°08'2 6.0
2017-Dec-17 22:30N 40°39' W 074°05'2 4.5
2017-Dec-17 22:00N 40°37' W 074°03'2 3.5
2017-Dec-17 21:30N 40°39' W 074°04'3 5.3
2017-Dec-17 21:00N 40°38' W 074°08'0 0.0
2017-Dec-17 20:29N 40°38' W 074°08'0 0.0
2017-Dec-17 20:00N 40°38' W 074°08'0 0.0
2017-Dec-17 19:30N 40°38' W 074°08'0 0.0
2017-Dec-17 18:59N 40°38' W 074°08'0 0.0
2017-Dec-17 18:30N 40°38' W 074°08'0 0.0
2017-Dec-17 17:59N 40°38' W 074°08'0 0.0
2017-Dec-17 17:29N 40°38' W 074°08'0 0.0
2017-Dec-17 16:59N 40°38' W 074°08'0 0.0
2017-Dec-17 16:29N 40°38' W 074°08'0 0.3
2017-Dec-17 16:00N 40°39' W 074°08'1 1.8
2017-Dec-17 15:31N 40°39' W 074°07'0 0.0
2017-Dec-17 15:00N 40°39' W 074°07'0 0.0
2017-Dec-17 14:30N 40°39' W 074°07'0 0.0
2017-Dec-17 13:59N 40°39' W 074°07'0 0.0
2017-Dec-17 13:30N 40°39' W 074°07'1 1.9
2017-Dec-17 12:58N 40°38' W 074°08'0 0.0
2017-Dec-17 11:30N 40°38' W 074°08'0 0.0
2017-Dec-17 10:59N 40°38' W 074°08'0 0.0
2017-Dec-17 10:30N 40°38' W 074°08'0 0.0
2017-Dec-17 09:59N 40°38' W 074°08'0 0.0
2017-Dec-17 08:59N 40°38' W 074°08'0 0.0
2017-Dec-17 08:30N 40°38' W 074°08'0 0.0
2017-Dec-17 07:58N 40°38' W 074°08'0 0.0
2017-Dec-17 07:29N 40°38' W 074°08'0 0.0
2017-Dec-17 07:01N 40°38' W 074°08'0 0.0
2017-Dec-17 06:26N 40°38' W 074°08'2 5.0
2017-Dec-17 06:00N 40°39' W 074°05'0 0.5
2017-Dec-17 05:30N 40°39' W 074°05'1 2.6
2017-Dec-17 05:00N 40°39' W 074°07'1 0.3
2017-Dec-17 02:03N 40°38' W 074°08'0 0.0
2017-Dec-17 01:51N 40°38' W 074°08'0 0.0
2017-Dec-17 01:29N 40°38' W 074°08'0 0.0
2017-Dec-17 00:33N 40°38' W 074°08'0 2.9
2017-Dec-17 00:30N 40°39' W 074°08'0 0.2
2017-Dec-17 00:00N 40°38' W 074°08'1 2.1
2017-Dec-16 23:31N 40°39' W 074°09'2 3.9
2017-Dec-16 23:00N 40°41' W 074°09'2 4.4
2017-Dec-16 22:30N 40°39' W 074°08'0 0.6
2017-Dec-16 21:50N 40°38' W 074°08'0 0.0
2017-Dec-16 21:24N 40°38' W 074°08'0 0.0
2017-Dec-16 21:00N 40°38' W 074°08'0 1.0
2017-Dec-16 20:30N 40°39' W 074°08'0 1.0
2017-Dec-16 20:00N 40°38' W 074°08'0 0.0
2017-Dec-16 19:30N 40°38' W 074°08'2 3.8
2017-Dec-16 19:00N 40°39' W 074°05'2 4.5
2017-Dec-16 18:31N 40°39' W 074°03'0 0.1
2017-Dec-16 18:01N 40°39' W 074°02'0 0.0
2017-Dec-16 17:30N 40°39' W 074°02'0 0.0
2017-Dec-16 17:01N 40°39' W 074°02'0 0.1
2017-Dec-16 16:31N 40°39' W 074°02'0 0.0
2017-Dec-16 16:01N 40°39' W 074°02'0 0.0
2017-Dec-16 15:31N 40°39' W 074°02'0 0.0
2017-Dec-16 15:01N 40°39' W 074°02'0 0.0
2017-Dec-16 14:30N 40°39' W 074°02'0 0.0
2017-Dec-16 14:01N 40°39' W 074°02'0 0.0
2017-Dec-16 13:31N 40°39' W 074°02'0 0.0
2017-Dec-16 13:00N 40°39' W 074°02'0 0.0
2017-Dec-16 12:30N 40°39' W 074°02'2 4.7
2017-Dec-16 12:00N 40°39' W 074°06'0 0.0
2017-Dec-16 11:30N 40°39' W 074°06'1 2.2
2017-Dec-16 11:00N 40°39' W 074°04'1 2.4
2017-Dec-16 10:31N 40°40' W 074°03'0 0.0
2017-Dec-16 10:01N 40°40' W 074°03'0 0.0
2017-Dec-16 09:30N 40°40' W 074°03'0 0.0
2017-Dec-16 09:00N 40°39' W 074°03'0 0.0
2017-Dec-16 08:31N 40°39' W 074°03'0 0.0
2017-Dec-16 08:00N 40°39' W 074°03'0 0.0
2017-Dec-16 07:30N 40°39' W 074°03'0 0.7
2017-Dec-16 07:01N 40°39' W 074°03'1 1.8
2017-Dec-16 06:31N 40°40' W 074°04'0 0.0
2017-Dec-16 06:01N 40°40' W 074°04'0 0.0
2017-Dec-16 05:31N 40°40' W 074°04'0 0.0
2017-Dec-16 05:00N 40°40' W 074°04'0 0.0
2017-Dec-16 04:31N 40°40' W 074°04'0 0.0
2017-Dec-16 04:00N 40°40' W 074°04'0 0.0
2017-Dec-16 03:30N 40°40' W 074°04'0 0.0
2017-Dec-16 03:01N 40°40' W 074°04'0 0.0
2017-Dec-16 02:31N 40°40' W 074°04'0 0.0
2017-Dec-16 02:01N 40°40' W 074°04'0 0.0
2017-Dec-16 01:31N 40°40' W 074°04'1 2.4
2017-Dec-16 01:00N 40°39' W 074°05'4 8.2
2017-Dec-16 00:30N 40°41' W 074°01'0 0.5
2017-Dec-16 00:01N 40°41' W 074°01'5 9.0
2017-Dec-15 23:30N 40°39' W 074°06'2 4.2
2017-Dec-15 22:58N 40°40' W 074°08'2 1.9
2017-Dec-15 22:07N 40°42' W 074°07'1 6.9
2017-Dec-15 22:00N 40°43' W 074°07'0 0.2
2017-Dec-15 21:30N 40°43' W 074°07'2 4.1
2017-Dec-15 20:59N 40°41' W 074°08'2 1.3
2017-Dec-15 19:10N 40°38' W 074°08'0 0.0
2017-Dec-15 18:44N 40°38' W 074°08'0 0.0
2017-Dec-15 18:21N 40°38' W 074°08'0 0.0
2017-Dec-15 17:57N 40°38' W 074°08'0 0.0
2017-Dec-15 17:28N 40°38' W 074°08'0 0.0
2017-Dec-15 16:55N 40°38' W 074°08'0 0.0
2017-Dec-15 16:28N 40°38' W 074°08'0 0.2
2017-Dec-15 16:00N 40°39' W 074°08'1 2.6
2017-Dec-15 15:29N 40°39' W 074°06'0 0.0
2017-Dec-15 15:00N 40°39' W 074°06'0 0.2
2017-Dec-15 14:31N 40°39' W 074°06'0 0.9
2017-Dec-15 14:01N 40°39' W 074°07'1 0.5
2017-Dec-15 12:12N 40°39' W 074°08'2 7.9
2017-Dec-15 12:00N 40°40' W 074°08'1 2.2
2017-Dec-15 11:30N 40°41' W 074°09'0 0.0
2017-Dec-15 11:00N 40°41' W 074°09'2 3.3
2017-Dec-15 10:30N 40°39' W 074°09'3 5.4
2017-Dec-15 10:00N 40°39' W 074°05'2 4.6
2017-Dec-15 09:30N 40°38' W 074°03'3 6.5
2017-Dec-15 09:00N 40°39' W 074°07'1 0.3
2017-Dec-15 06:18N 40°38' W 074°08'0 0.0
2017-Dec-15 05:43N 40°38' W 074°08'0 0.0
2017-Dec-15 05:29N 40°38' W 074°08'0 0.0
2017-Dec-15 05:00N 40°38' W 074°08'0 0.0
2017-Dec-15 03:56N 40°38' W 074°08'3 1.8
2017-Dec-15 02:29N 40°41' W 074°08'3 0.3
2017-Dec-14 18:31N 40°39' W 074°08'2 4.7
2017-Dec-14 18:00N 40°39' W 074°05'4 8.5
2017-Dec-14 17:30N 40°35' W 074°02'0 0.7
2017-Dec-14 17:00N 40°35' W 074°01'0 0.0
2017-Dec-14 16:30N 40°35' W 074°01'0 0.0
2017-Dec-14 16:00N 40°35' W 074°01'0 0.0
2017-Dec-14 14:59N 40°35' W 074°01'0 0.0
2017-Dec-14 14:30N 40°35' W 074°01'0 0.0
2017-Dec-14 14:00N 40°35' W 074°01'1 2.7
2017-Dec-14 13:30N 40°36' W 074°02'5 9.2
2017-Dec-14 13:00N 40°39' W 074°08'0 0.1
2017-Dec-14 12:30N 40°38' W 074°08'0 0.0
2017-Dec-14 12:00N 40°38' W 074°08'0 0.0
2017-Dec-14 11:30N 40°38' W 074°08'2 3.9
2017-Dec-14 11:00N 40°40' W 074°08'2 3.6
2017-Dec-14 10:29N 40°39' W 074°09'3 5.5
2017-Dec-14 10:01N 40°39' W 074°05'2 4.5
2017-Dec-14 09:30N 40°38' W 074°03'2 4.5
2017-Dec-14 09:01N 40°39' W 074°06'2 3.5
2017-Dec-14 08:31N 40°38' W 074°08'0 0.0
2017-Dec-14 08:00N 40°38' W 074°08'0 0.0
2017-Dec-14 07:30N 40°38' W 074°08'0 0.0
2017-Dec-14 07:00N 40°38' W 074°08'3 5.3
2017-Dec-14 06:31N 40°39' W 074°11'5 9.7
2017-Dec-14 06:01N 40°34' W 074°13'2 0.7
2017-Dec-14 02:57N 40°36' W 074°12'3 6.7
2017-Dec-14 02:30N 40°39' W 074°10'2 3.9
2017-Dec-14 02:00N 40°38' W 074°08'0 0.0
2017-Dec-14 01:29N 40°38' W 074°08'0 0.0
2017-Dec-14 01:00N 40°38' W 074°08'0 0.0
2017-Dec-14 00:30N 40°38' W 074°08'0 0.0
2017-Dec-14 00:00N 40°38' W 074°08'0 0.0
2017-Dec-13 23:22N 40°38' W 074°08'0 0.0
2017-Dec-13 22:56N 40°38' W 074°08'0 0.0
2017-Dec-13 22:30N 40°38' W 074°08'0 0.0
2017-Dec-13 22:00N 40°38' W 074°08'0 0.0
2017-Dec-13 21:28N 40°38' W 074°08'0 0.0
2017-Dec-13 21:00N 40°38' W 074°08'0 0.0
2017-Dec-13 20:30N 40°38' W 074°08'0 0.0
2017-Dec-13 20:00N 40°38' W 074°08'0 0.0
2017-Dec-13 19:30N 40°38' W 074°08'0 0.0
2017-Dec-13 18:59N 40°38' W 074°08'0 0.0
2017-Dec-13 18:30N 40°38' W 074°08'0 0.0
2017-Dec-13 17:56N 40°38' W 074°08'0 0.0
2017-Dec-13 17:27N 40°38' W 074°08'0 0.9
2017-Dec-13 16:59N 40°39' W 074°07'0 0.9
2017-Dec-13 16:30N 40°39' W 074°07'0 0.0
2017-Dec-13 15:59N 40°39' W 074°07'1 2.8
2017-Dec-13 15:30N 40°39' W 074°05'2 4.8
2017-Dec-13 15:00N 40°37' W 074°03'0 0.1
2017-Dec-13 14:30N 40°37' W 074°03'3 6.3
2017-Dec-13 14:00N 40°39' W 074°07'1 1.8
2017-Dec-13 13:29N 40°38' W 074°08'0 0.0
2017-Dec-13 12:52N 40°38' W 074°08'0 0.0
2017-Dec-13 12:28N 40°38' W 074°08'1 2.7
2017-Dec-13 12:00N 40°39' W 074°09'5 8.6
2017-Dec-13 11:28N 40°35' W 074°13'2 0.5
2017-Dec-13 08:01N 40°36' W 074°12'0 9.8
2017-Dec-13 07:59N 40°37' W 074°12'3 7.4
2017-Dec-13 07:31N 40°39' W 074°08'0 0.3
2017-Dec-13 06:12N 40°38' W 074°08'0 0.0
2017-Dec-13 05:51N 40°38' W 074°08'0 0.0
2017-Dec-13 05:20N 40°38' W 074°08'0 0.0
2017-Dec-13 02:10N 40°38' W 074°08'0 0.0
2017-Dec-13 01:54N 40°38' W 074°08'0 0.0
2017-Dec-13 01:28N 40°38' W 074°08'0 0.0
2017-Dec-13 00:59N 40°38' W 074°08'0 0.0
2017-Dec-13 00:30N 40°38' W 074°08'0 0.0
2017-Dec-12 23:15N 40°38' W 074°08'0 0.0
2017-Dec-12 20:44N 40°38' W 074°08'0 0.0
2017-Dec-12 20:18N 40°38' W 074°08'2 7.4
2017-Dec-12 20:00N 40°39' W 074°05'0 0.3
2017-Dec-12 19:30N 40°39' W 074°05'1 1.9
2017-Dec-12 19:00N 40°40' W 074°04'0 0.0
2017-Dec-12 18:30N 40°40' W 074°04'0 0.0
2017-Dec-12 18:01N 40°40' W 074°04'0 0.3
2017-Dec-12 17:31N 40°40' W 074°04'0 0.0
2017-Dec-12 17:00N 40°40' W 074°04'0 0.0
2017-Dec-12 16:30N 40°40' W 074°04'0 0.0
2017-Dec-12 16:01N 40°40' W 074°04'0 0.0
2017-Dec-12 15:31N 40°40' W 074°04'0 0.0
2017-Dec-12 15:01N 40°40' W 074°04'0 0.0
2017-Dec-12 14:31N 40°40' W 074°04'0 0.0
2017-Dec-12 14:01N 40°40' W 074°04'0 0.0
2017-Dec-12 13:31N 40°40' W 074°04'0 0.0
2017-Dec-12 13:00N 40°40' W 074°04'0 0.0
2017-Dec-12 12:30N 40°40' W 074°04'0 0.0
2017-Dec-12 12:01N 40°40' W 074°04'0 0.0
2017-Dec-12 11:30N 40°40' W 074°04'0 0.0
2017-Dec-12 11:01N 40°40' W 074°04'0 0.0
2017-Dec-12 10:31N 40°40' W 074°04'0 0.0
2017-Dec-12 10:01N 40°40' W 074°04'0 0.0
2017-Dec-12 09:31N 40°40' W 074°04'0 0.0
2017-Dec-12 09:00N 40°40' W 074°04'0 0.0
2017-Dec-12 08:31N 40°40' W 074°04'0 0.0
2017-Dec-12 08:01N 40°40' W 074°04'0 0.0
2017-Dec-12 07:30N 40°40' W 074°04'0 0.0
2017-Dec-12 07:00N 40°40' W 074°04'0 0.0
2017-Dec-12 06:31N 40°40' W 074°04'0 0.0
2017-Dec-12 06:01N 40°40' W 074°04'0 0.0
2017-Dec-12 05:31N 40°40' W 074°04'0 0.0
2017-Dec-12 05:01N 40°40' W 074°04'0 0.0
2017-Dec-12 04:30N 40°40' W 074°04'0 0.0
2017-Dec-12 04:01N 40°40' W 074°04'0 0.0
2017-Dec-12 03:31N 40°40' W 074°04'0 0.0
2017-Dec-12 03:01N 40°40' W 074°04'0 0.0
2017-Dec-12 02:31N 40°40' W 074°04'0 0.0
2017-Dec-12 02:00N 40°40' W 074°04'0 0.0
2017-Dec-12 01:30N 40°40' W 074°04'0 0.0
2017-Dec-12 01:01N 40°40' W 074°04'0 0.0
2017-Dec-12 00:30N 40°40' W 074°04'0 0.0
2017-Dec-12 00:00N 40°40' W 074°04'0 0.0
2017-Dec-11 23:31N 40°40' W 074°04'0 0.0
2017-Dec-11 23:01N 40°40' W 074°04'0 0.0
2017-Dec-11 22:31N 40°40' W 074°04'0 0.0
2017-Dec-11 22:01N 40°40' W 074°04'0 0.0
2017-Dec-11 21:31N 40°40' W 074°04'0 0.0
2017-Dec-11 21:01N 40°40' W 074°04'0 0.0
2017-Dec-11 20:31N 40°40' W 074°04'1 2.1
2017-Dec-11 20:00N 40°39' W 074°05'0 0.7
2017-Dec-11 19:30N 40°39' W 074°05'1 2.8
2017-Dec-11 19:00N 40°38' W 074°03'4 7.4
2017-Dec-11 18:30N 40°39' W 074°08'3 5.6
2017-Dec-11 17:55N 40°42' W 074°09'1 3.3
2017-Dec-11 17:30N 40°41' W 074°08'3 4.8
2017-Dec-11 16:59N 40°39' W 074°06'4 9.4
2017-Dec-11 16:30N 40°41' W 074°01'0 0.1
2017-Dec-11 16:01N 40°41' W 074°01'3 6.8
2017-Dec-11 15:30N 40°39' W 074°04'3 5.3
2017-Dec-11 15:00N 40°38' W 074°08'0 0.0
2017-Dec-11 14:30N 40°38' W 074°08'0 0.0
2017-Dec-11 14:01N 40°38' W 074°08'0 0.0
2017-Dec-11 13:29N 40°38' W 074°08'0 0.0
2017-Dec-11 12:58N 40°38' W 074°08'0 0.0
2017-Dec-11 12:30N 40°38' W 074°08'0 0.0
2017-Dec-11 12:00N 40°38' W 074°08'0 0.0
2017-Dec-11 11:30N 40°38' W 074°08'0 0.0
2017-Dec-11 11:00N 40°38' W 074°08'0 0.0
2017-Dec-11 10:30N 40°38' W 074°08'0 0.0
2017-Dec-11 10:01N 40°38' W 074°08'0 0.0
2017-Dec-11 09:24N 40°38' W 074°08'0 0.0
2017-Dec-11 08:59N 40°38' W 074°08'0 0.0
2017-Dec-11 08:27N 40°38' W 074°08'0 0.0
2017-Dec-11 08:00N 40°38' W 074°08'0 0.0
2017-Dec-11 07:31N 40°38' W 074°08'0 0.0
2017-Dec-11 07:00N 40°38' W 074°08'0 0.0
2017-Dec-11 06:30N 40°38' W 074°08'0 0.0
2017-Dec-11 06:00N 40°38' W 074°08'0 0.0
2017-Dec-11 05:31N 40°38' W 074°08'0 0.0
2017-Dec-11 04:59N 40°38' W 074°08'0 0.0
2017-Dec-11 04:30N 40°38' W 074°08'0 0.0
2017-Dec-11 04:00N 40°38' W 074°08'0 0.0
2017-Dec-11 03:30N 40°38' W 074°08'0 0.0
2017-Dec-11 03:00N 40°38' W 074°08'0 0.0
2017-Dec-11 02:30N 40°38' W 074°08'0 0.0
2017-Dec-11 02:00N 40°38' W 074°08'0 0.0
2017-Dec-11 01:30N 40°38' W 074°08'0 0.0
2017-Dec-11 00:59N 40°38' W 074°08'0 0.0
2017-Dec-11 00:29N 40°38' W 074°08'0 0.0
2017-Dec-11 00:00N 40°38' W 074°08'0 0.0
2017-Dec-10 23:29N 40°38' W 074°08'0 0.0
2017-Dec-10 23:00N 40°38' W 074°08'0 0.0
2017-Dec-10 22:30N 40°38' W 074°08'1 1.3
2017-Dec-10 22:01N 40°39' W 074°09'4 7.7
2017-Dec-10 21:30N 40°36' W 074°12'1 0.5
2017-Dec-10 20:16N 40°35' W 074°12'1 4.0
2017-Dec-10 19:56N 40°34' W 074°13'3 1.2
2017-Dec-10 17:45N 40°36' W 074°12'2 6.8
2017-Dec-10 17:31N 40°38' W 074°12'0 0.1
2017-Dec-10 17:00N 40°38' W 074°12'4 7.0
2017-Dec-10 16:30N 40°39' W 074°08'0 0.2
2017-Dec-10 15:59N 40°38' W 074°08'0 0.0
2017-Dec-10 15:28N 40°38' W 074°08'0 0.0
2017-Dec-10 15:00N 40°38' W 074°08'0 0.0
2017-Dec-10 14:30N 40°38' W 074°08'0 0.0
2017-Dec-10 14:00N 40°38' W 074°08'0 0.0
2017-Dec-10 13:27N 40°38' W 074°08'0 0.0
2017-Dec-10 13:00N 40°38' W 074°08'0 0.0
2017-Dec-10 12:27N 40°38' W 074°08'0 0.0
2017-Dec-10 12:01N 40°38' W 074°08'0 0.0
2017-Dec-10 11:30N 40°38' W 074°08'0 0.0
2017-Dec-10 10:37N 40°38' W 074°08'0 0.0
2017-Dec-10 09:38N 40°38' W 074°08'0 0.0
2017-Dec-10 09:30N 40°38' W 074°08'0 0.0
2017-Dec-10 08:59N 40°38' W 074°08'0 0.0
2017-Dec-10 08:25N 40°38' W 074°08'0 0.0
2017-Dec-10 07:56N 40°38' W 074°08'0 0.4
2017-Dec-10 07:30N 40°39' W 074°08'2 3.4
2017-Dec-10 07:01N 40°40' W 074°08'1 2.2
2017-Dec-10 06:30N 40°41' W 074°09'0 0.0
2017-Dec-10 06:00N 40°41' W 074°09'0 0.1
2017-Dec-10 05:30N 40°41' W 074°09'0 0.0
2017-Dec-10 05:00N 40°41' W 074°09'0 1.0
2017-Dec-10 04:30N 40°41' W 074°09'2 4.7
2017-Dec-10 03:59N 40°38' W 074°08'0 0.0
2017-Dec-10 03:30N 40°38' W 074°08'0 0.0
2017-Dec-10 03:00N 40°38' W 074°08'0 0.0
2017-Dec-10 02:31N 40°38' W 074°08'0 0.0
2017-Dec-10 02:00N 40°38' W 074°08'1 1.3
2017-Dec-10 01:29N 40°39' W 074°07'0 0.4
2017-Dec-10 01:00N 40°39' W 074°07'1 2.6
2017-Dec-10 00:31N 40°39' W 074°05'0 0.4
2017-Dec-10 00:01N 40°39' W 074°05'0 0.8
2017-Dec-09 23:30N 40°39' W 074°05'1 1.7
2017-Dec-09 23:00N 40°40' W 074°04'0 0.0
2017-Dec-09 22:30N 40°40' W 074°04'0 0.0
2017-Dec-09 22:00N 40°40' W 074°04'0 0.0
2017-Dec-09 21:31N 40°40' W 074°04'0 0.0
2017-Dec-09 21:00N 40°40' W 074°04'0 0.0
2017-Dec-09 20:30N 40°40' W 074°04'0 0.0
2017-Dec-09 20:01N 40°40' W 074°04'0 0.0
2017-Dec-09 19:31N 40°40' W 074°04'0 0.0
2017-Dec-09 19:00N 40°40' W 074°04'0 0.0
2017-Dec-09 18:30N 40°40' W 074°04'0 0.0
2017-Dec-09 18:00N 40°40' W 074°04'0 0.0
2017-Dec-09 17:30N 40°40' W 074°04'1 2.0
2017-Dec-09 17:00N 40°40' W 074°03'1 1.2
2017-Dec-09 16:31N 40°40' W 074°03'0 0.1
2017-Dec-09 16:01N 40°40' W 074°03'0 0.3
2017-Dec-09 15:30N 40°40' W 074°03'0 0.1
2017-Dec-09 15:00N 40°40' W 074°03'0 0.1
2017-Dec-09 14:31N 40°40' W 074°03'0 0.1
2017-Dec-09 14:01N 40°40' W 074°03'0 0.0
2017-Dec-09 13:30N 40°40' W 074°03'0 0.0
2017-Dec-09 13:00N 40°40' W 074°03'0 0.0
2017-Dec-09 12:31N 40°40' W 074°03'0 0.0
2017-Dec-09 12:01N 40°40' W 074°03'3 5.3
2017-Dec-09 11:31N 40°39' W 074°06'1 2.9
2017-Dec-09 11:01N 40°38' W 074°08'0 0.0
2017-Dec-09 10:30N 40°38' W 074°08'0 0.0
2017-Dec-09 10:01N 40°38' W 074°08'2 3.4
2017-Dec-09 09:30N 40°39' W 074°10'4 8.6
2017-Dec-09 09:00N 40°35' W 074°13'1 0.7
2017-Dec-09 07:11N 40°36' W 074°12'2 9.4
2017-Dec-09 06:59N 40°38' W 074°12'3 6.4
2017-Dec-09 06:29N 40°38' W 074°08'0 0.0
2017-Dec-09 06:00N 40°38' W 074°08'0 0.0
2017-Dec-09 05:30N 40°38' W 074°08'0 0.0
2017-Dec-09 04:57N 40°38' W 074°08'0 0.0
2017-Dec-09 04:25N 40°38' W 074°08'0 0.0
2017-Dec-09 03:56N 40°38' W 074°08'0 0.0
2017-Dec-09 03:29N 40°38' W 074°08'0 0.0
2017-Dec-09 02:46N 40°38' W 074°08'0 0.0
2017-Dec-09 01:21N 40°38' W 074°08'0 0.0
2017-Dec-09 01:01N 40°38' W 074°08'3 5.4
2017-Dec-09 00:30N 40°39' W 074°04'3 6.9
2017-Dec-09 00:01N 40°41' W 074°01'2 3.6
2017-Dec-08 23:31N 40°40' W 074°02'4 8.3
2017-Dec-08 23:00N 40°39' W 074°08'3 5.1
2017-Dec-08 22:30N 40°41' W 074°08'1 2.0
2017-Dec-08 21:58N 40°42' W 074°09'3 7.0
2017-Dec-08 21:30N 40°39' W 074°08'1 1.0
2017-Dec-08 20:59N 40°38' W 074°08'0 0.0
2017-Dec-08 20:26N 40°38' W 074°08'0 0.0
2017-Dec-08 19:58N 40°38' W 074°08'0 0.0
2017-Dec-08 19:30N 40°38' W 074°08'0 0.0
2017-Dec-08 18:59N 40°38' W 074°08'0 0.0
2017-Dec-08 18:31N 40°38' W 074°08'0 0.0
2017-Dec-08 17:58N 40°38' W 074°08'0 0.0
2017-Dec-08 17:27N 40°38' W 074°08'0 0.0
2017-Dec-08 16:53N 40°38' W 074°08'0 0.0
2017-Dec-08 16:30N 40°38' W 074°08'0 0.0
2017-Dec-08 16:00N 40°38' W 074°08'0 0.0
2017-Dec-08 15:30N 40°38' W 074°08'0 0.0
2017-Dec-08 14:53N 40°38' W 074°08'0 0.0
2017-Dec-08 14:30N 40°38' W 074°08'0 0.0
2017-Dec-08 14:00N 40°38' W 074°08'0 0.0
2017-Dec-08 13:30N 40°38' W 074°08'0 0.0
2017-Dec-08 13:00N 40°38' W 074°08'0 0.0
2017-Dec-08 12:29N 40°38' W 074°08'0 0.0
2017-Dec-08 12:00N 40°38' W 074°08'0 0.0
2017-Dec-08 11:31N 40°38' W 074°08'0 0.0
2017-Dec-08 10:59N 40°38' W 074°08'0 0.0
2017-Dec-08 10:29N 40°38' W 074°08'0 0.0
2017-Dec-08 10:00N 40°38' W 074°08'0 0.0
2017-Dec-08 09:31N 40°38' W 074°08'0 0.0
2017-Dec-08 09:00N 40°38' W 074°08'0 0.0
2017-Dec-08 08:30N 40°38' W 074°08'4 7.3
2017-Dec-08 08:00N 40°37' W 074°12'2 3.7
2017-Dec-08 07:30N 40°35' W 074°13'0 0.1
2017-Dec-08 06:58N 40°35' W 074°13'0 0.0
2017-Dec-08 06:22N 40°35' W 074°13'  

Dump ship's entire track history